createdAt,value
2022-10-23T01:00:46.805Z,2.50
2022-10-23T01:03:22.487Z,2.73
2022-10-23T01:05:55.719Z,2.50
2022-10-23T01:08:36.491Z,3.00
2022-10-23T01:11:13.366Z,2.50
2022-10-23T01:13:51.398Z,2.37
2022-10-23T01:16:28.803Z,2.90
2022-10-23T01:19:10.835Z,2.50
2022-10-23T01:21:48.649Z,2.57
2022-10-23T01:24:37.116Z,2.30
2022-10-23T01:27:22.945Z,2.43
2022-10-23T01:30:02.015Z,2.43
2022-10-23T01:32:44.654Z,2.20
2022-10-23T01:35:17.555Z,2.30
2022-10-23T01:37:55.435Z,2.40
2022-10-23T01:40:28.604Z,2.00
2022-10-23T01:43:03.536Z,2.33
2022-10-23T01:45:40.769Z,2.30
2022-10-23T01:48:18.243Z,2.70
2022-10-23T01:50:48.382Z,2.17
2022-10-23T01:53:17.813Z,2.43
2022-10-23T01:55:47.557Z,2.30
2022-10-23T01:58:24.303Z,2.10
2022-10-23T02:00:57.655Z,2.43
2022-10-23T02:03:27.538Z,2.57
2022-10-23T02:05:55.889Z,2.20
2022-10-23T02:08:25.425Z,2.40
2022-10-23T02:11:00.731Z,2.60
2022-10-23T02:13:37.505Z,2.50
2022-10-23T02:16:13.789Z,2.10
2022-10-23T02:18:52.373Z,2.30
2022-10-23T02:21:31.047Z,2.30
2022-10-23T02:24:08.469Z,2.50
2022-10-23T02:26:44.486Z,1.90
2022-10-23T02:29:19.620Z,2.07
2022-10-23T02:31:48.666Z,2.00
2022-10-23T02:34:20.326Z,2.10
2022-10-23T02:36:48.776Z,1.97
2022-10-23T02:39:18.259Z,2.47
2022-10-23T02:41:50.389Z,2.10
2022-10-23T02:44:29.121Z,2.13
2022-10-23T02:47:09.255Z,2.43
2022-10-23T02:49:43.068Z,2.40
2022-10-23T02:52:19.800Z,2.50
2022-10-23T02:55:06.429Z,2.47
2022-10-23T02:57:52.404Z,2.37
2022-10-23T03:00:23.787Z,2.40
2022-10-23T03:03:00.808Z,2.53
2022-10-23T03:05:34.482Z,2.47
2022-10-23T03:08:05.056Z,2.37
2022-10-23T03:10:33.468Z,2.27
2022-10-23T03:13:01.613Z,2.43
2022-10-23T03:15:36.599Z,2.50
2022-10-23T03:18:04.930Z,2.60
2022-10-23T03:20:33.505Z,2.40
2022-10-23T03:23:01.629Z,2.17
2022-10-23T03:25:29.726Z,2.27
2022-10-23T03:28:00.211Z,2.30
2022-10-23T03:30:28.467Z,2.30
2022-10-23T03:32:58.303Z,2.00
2022-10-23T03:35:26.522Z,2.40
2022-10-23T03:37:54.801Z,1.90
2022-10-23T03:40:26.091Z,2.40
2022-10-23T03:42:54.237Z,1.90
2022-10-23T03:45:22.533Z,2.20
2022-10-23T03:47:51.750Z,2.40
2022-10-23T03:50:21.569Z,2.03
2022-10-23T03:52:50.062Z,2.33
2022-10-23T03:55:18.319Z,2.57
2022-10-23T03:57:46.379Z,2.37
2022-10-23T04:00:14.931Z,2.33
2022-10-23T04:02:48.420Z,2.40
2022-10-23T04:05:17.763Z,2.80
2022-10-23T04:07:56.084Z,2.17
2022-10-23T04:10:24.497Z,2.57
2022-10-23T04:12:52.673Z,2.43
2022-10-23T04:15:20.726Z,2.03
2022-10-23T04:17:48.913Z,2.53
2022-10-23T04:20:17.647Z,2.53
2022-10-23T04:22:46.153Z,2.40
2022-10-23T04:25:16.531Z,2.23
2022-10-23T04:27:44.890Z,2.20
2022-10-23T04:30:14.651Z,2.30
2022-10-23T04:32:43.018Z,2.50
2022-10-23T04:35:11.267Z,2.50
2022-10-23T04:37:39.768Z,2.43
2022-10-23T04:40:10.036Z,1.80
2022-10-23T04:42:41.893Z,2.20
2022-10-23T04:45:11.309Z,2.47
2022-10-23T04:47:41.986Z,2.50
2022-10-23T04:50:10.751Z,2.40
2022-10-23T04:52:58.497Z,2.30
2022-10-23T04:55:50.645Z,2.70
2022-10-23T04:58:27.412Z,2.30
2022-10-23T05:00:58.568Z,2.37
2022-10-23T05:03:27.986Z,2.17
2022-10-23T05:05:57.300Z,2.40
2022-10-23T05:08:51.661Z,2.43
2022-10-23T05:11:22.630Z,2.30
2022-10-23T05:13:53.807Z,2.53
2022-10-23T05:16:33.258Z,2.53
2022-10-23T05:19:02.238Z,2.70
2022-10-23T05:21:32.724Z,2.70
2022-10-23T05:24:02.726Z,2.50
2022-10-23T05:26:32.425Z,2.60
2022-10-23T05:29:07.340Z,2.67
2022-10-23T05:31:36.670Z,2.23
2022-10-23T05:34:13.540Z,2.30
2022-10-23T05:36:45.794Z,2.37
2022-10-23T05:39:15.599Z,2.33
2022-10-23T05:41:43.797Z,2.37
2022-10-23T05:44:13.880Z,2.20
2022-10-23T05:47:02.239Z,2.47
2022-10-23T05:49:42.183Z,2.30
2022-10-23T05:52:23.341Z,2.67
2022-10-23T05:55:08.251Z,2.30
2022-10-23T05:57:54.869Z,2.10
2022-10-23T06:00:40.831Z,2.07
2022-10-23T06:03:28.816Z,2.30
2022-10-23T06:05:58.240Z,1.90
2022-10-23T06:08:36.365Z,1.50
2022-10-23T06:11:09.250Z,2.00
2022-10-23T06:13:37.960Z,2.30
2022-10-23T06:16:15.421Z,1.93
2022-10-23T06:18:44.659Z,3.67
2022-10-23T06:21:16.744Z,2.83
2022-10-23T06:23:47.895Z,2.67
2022-10-23T06:26:18.001Z,2.80
2022-10-23T06:28:57.087Z,3.17
2022-10-23T06:31:28.173Z,3.30
2022-10-23T06:33:59.385Z,3.43
2022-10-23T06:36:28.843Z,3.50
2022-10-23T06:39:06.031Z,3.30
2022-10-23T06:42:12.849Z,4.00
2022-10-23T06:45:07.995Z,3.60
2022-10-23T06:48:12.715Z,4.43
2022-10-23T06:51:05.403Z,4.10
2022-10-23T06:53:46.417Z,4.10
2022-10-23T06:56:35.131Z,3.30
2022-10-23T06:59:07.677Z,3.60
2022-10-23T07:01:36.709Z,4.03
2022-10-23T07:04:07.517Z,2.83
2022-10-23T07:06:35.701Z,3.00
2022-10-23T07:09:04.366Z,3.40
2022-10-23T07:11:51.294Z,2.90
2022-10-23T07:14:21.779Z,2.57
2022-10-23T07:16:49.973Z,2.77
2022-10-23T07:19:19.958Z,3.43
2022-10-23T07:21:48.423Z,4.30
2022-10-23T07:24:26.579Z,3.77
2022-10-23T07:26:56.172Z,2.93
2022-10-23T07:29:26.344Z,3.00
2022-10-23T07:31:54.661Z,2.60
2022-10-23T07:34:30.134Z,2.90
2022-10-23T07:37:22.630Z,2.77
2022-10-23T07:39:50.858Z,3.47
2022-10-23T07:42:19.371Z,2.60
2022-10-23T07:44:47.853Z,3.00
2022-10-23T07:47:16.294Z,2.90
2022-10-23T07:49:50.399Z,2.80
2022-10-23T07:52:21.482Z,2.60
2022-10-23T07:55:10.703Z,3.10
2022-10-23T07:57:44.135Z,2.70
2022-10-23T08:02:59.569Z,2.90
2022-10-23T08:05:29.228Z,2.50
2022-10-23T08:08:01.356Z,3.73
2022-10-23T08:10:30.757Z,2.73
2022-10-23T08:12:59.761Z,2.97
2022-10-23T08:15:53.549Z,2.80
2022-10-23T08:18:45.566Z,2.40
2022-10-23T08:21:15.796Z,2.53
2022-10-23T08:23:47.128Z,2.33
2022-10-23T08:26:15.734Z,3.43
2022-10-23T08:28:44.167Z,2.50
2022-10-23T08:31:15.271Z,2.50
2022-10-23T08:33:53.116Z,2.53
2022-10-23T08:36:25.127Z,2.90
2022-10-23T08:38:54.833Z,2.60
2022-10-23T08:41:28.630Z,2.50
2022-10-23T08:44:14.514Z,2.40
2022-10-23T08:46:48.591Z,2.00
2022-10-23T08:49:48.963Z,2.13
2022-10-23T08:52:24.760Z,2.57
2022-10-23T08:55:06.537Z,1.97
2022-10-23T08:57:42.759Z,2.00
2022-10-23T09:00:15.551Z,1.50
2022-10-23T09:02:46.621Z,1.80
2022-10-23T09:05:18.337Z,1.70
2022-10-23T09:08:08.773Z,1.77
2022-10-23T09:10:50.666Z,1.77
2022-10-23T09:13:41.352Z,1.80
2022-10-23T09:16:20.786Z,1.60
2022-10-23T09:18:50.642Z,1.43
2022-10-23T09:21:18.992Z,1.50
2022-10-23T09:23:48.591Z,1.53
2022-10-23T09:26:18.678Z,1.40
2022-10-23T09:28:49.412Z,1.40
2022-10-23T09:31:18.596Z,1.27
2022-10-23T09:33:57.903Z,1.23
2022-10-23T09:36:29.231Z,1.30
2022-10-23T09:39:00.954Z,1.30
2022-10-23T09:41:34.028Z,1.30
2022-10-23T09:44:18.395Z,1.60
2022-10-23T09:49:20.865Z,1.80
2022-10-23T09:52:01.259Z,1.63
2022-10-23T09:54:33.197Z,1.50
2022-10-23T09:57:07.291Z,1.30
2022-10-23T09:59:35.527Z,1.73
2022-10-23T10:02:05.113Z,1.50
2022-10-23T10:04:50.712Z,1.23
2022-10-23T10:07:21.529Z,1.37
2022-10-23T10:09:51.500Z,1.43
2022-10-23T10:12:37.511Z,1.30
2022-10-23T10:15:16.941Z,1.50
2022-10-23T10:17:54.687Z,1.30
2022-10-23T10:20:44.410Z,1.27
2022-10-23T10:23:23.487Z,1.40
2022-10-23T10:26:01.367Z,1.30
2022-10-23T10:28:41.185Z,1.20
2022-10-23T10:31:18.085Z,1.20
2022-10-23T10:34:08.083Z,1.20
2022-10-23T10:36:45.947Z,1.20
2022-10-23T10:39:39.724Z,1.50
2022-10-23T10:42:39.629Z,1.20
2022-10-23T10:45:27.672Z,1.30
2022-10-23T10:48:20.437Z,1.33
2022-10-23T10:51:30.396Z,1.10
2022-10-23T10:54:26.359Z,1.33
2022-10-23T10:56:59.714Z,1.30
2022-10-23T10:59:32.319Z,1.50
2022-10-23T11:02:06.732Z,1.00
2022-10-23T11:04:42.002Z,1.00
2022-10-23T11:07:17.580Z,1.30
2022-10-23T11:09:46.610Z,1.33
2022-10-23T11:12:20.694Z,1.00
2022-10-23T11:14:52.956Z,1.30
2022-10-23T11:17:29.428Z,1.90
2022-10-23T11:20:04.342Z,1.40
2022-10-23T11:22:37.823Z,1.70
2022-10-23T11:25:37.905Z,1.60
2022-10-23T11:29:05.487Z,1.33
2022-10-23T11:31:59.020Z,1.30
2022-10-23T11:35:08.907Z,1.27
2022-10-23T11:37:37.779Z,1.20
2022-10-23T11:40:23.663Z,1.33
2022-10-23T11:42:54.714Z,1.13
2022-10-23T11:45:35.827Z,1.47
2022-10-23T11:48:07.781Z,1.00
2022-10-23T11:50:55.262Z,1.10
2022-10-23T11:53:38.671Z,1.10
2022-10-23T11:56:31.214Z,1.57
2022-10-23T11:59:12.711Z,1.30
2022-10-23T12:01:45.608Z,1.30
2022-10-23T12:04:28.588Z,1.07
2022-10-23T13:49:49.421Z,1.47
2022-10-23T13:52:58.411Z,1.40
2022-10-23T13:56:13.138Z,1.10
2022-10-23T14:03:51.902Z,1.40
2022-10-23T14:07:21.703Z,1.40
2022-10-23T14:14:26.262Z,1.20
2022-10-23T14:17:13.901Z,1.30
2022-10-23T14:23:39.511Z,1.33
2022-10-23T14:33:24.129Z,1.43
2022-10-23T14:36:30.887Z,1.40
2022-10-23T14:52:50.203Z,1.33
2022-10-23T14:56:36.755Z,1.47
2022-10-23T14:59:27.139Z,1.10
2022-10-23T15:06:42.019Z,1.00
2022-10-23T15:10:15.107Z,1.30
2022-10-23T15:14:48.146Z,1.20
2022-10-23T16:03:19.097Z,1.97
2022-10-23T16:06:11.960Z,2.00
2022-10-23T16:29:07.537Z,3.30
2022-10-23T16:32:01.032Z,2.30
2022-10-23T16:39:24.164Z,3.20
2022-10-23T16:42:29.088Z,2.90
2022-10-23T16:45:26.323Z,2.27
2022-10-23T16:48:17.373Z,2.30
2022-10-23T16:54:00.268Z,2.07
2022-10-23T17:07:03.307Z,2.40
2022-10-23T17:10:56.035Z,2.53
2022-10-23T17:13:35.152Z,2.30
2022-10-23T17:16:19.073Z,1.80
2022-10-23T17:19:08.611Z,1.90
2022-10-23T17:21:59.908Z,1.77
2022-10-23T17:24:53.116Z,2.20
2022-10-23T17:27:43.408Z,2.20
2022-10-23T17:30:30.402Z,2.30
2022-10-23T17:33:11.084Z,2.67
2022-10-23T17:36:23.471Z,2.80
2022-10-23T17:39:13.721Z,2.87
2022-10-23T17:41:55.407Z,2.80
2022-10-23T17:44:37.230Z,3.00
2022-10-23T17:47:40.344Z,2.70
2022-10-23T17:50:21.148Z,2.90
2022-10-23T17:52:58.314Z,2.27
2022-10-23T17:55:26.509Z,2.50
2022-10-23T18:10:48.663Z,2.30
2022-10-23T18:13:28.249Z,2.03
2022-10-23T18:16:23.784Z,2.20
2022-10-23T18:19:00.708Z,2.60
2022-10-23T18:21:32.682Z,2.70
2022-10-23T18:24:06.953Z,2.53
2022-10-23T18:26:46.023Z,2.73
2022-10-23T18:29:24.378Z,2.50
2022-10-23T18:32:01.906Z,2.30
2022-10-23T18:34:36.868Z,3.13
2022-10-23T18:37:17.191Z,2.50
2022-10-23T18:40:55.659Z,2.53
2022-10-23T19:10:09.610Z,2.53
2022-10-23T19:34:28.521Z,2.47
2022-10-23T19:37:54.178Z,2.43
2022-10-23T19:45:06.130Z,2.30
2022-10-23T19:47:44.944Z,2.77
2022-10-23T19:50:33.515Z,2.53
2022-10-23T19:53:11.514Z,2.60
2022-10-23T19:55:53.273Z,2.47
2022-10-23T19:58:56.836Z,2.30
2022-10-23T20:08:24.689Z,2.70
2022-10-23T20:12:56.081Z,2.67
2022-10-23T20:20:45.993Z,2.40
2022-10-23T20:24:40.607Z,2.43
2022-10-23T20:32:03.778Z,2.80
2022-10-23T20:46:59.283Z,3.30
2022-10-23T22:02:44.721Z,3.50
2022-10-23T22:24:49.906Z,3.00
2022-10-23T22:32:29.284Z,3.90
2022-10-23T22:37:47.029Z,4.27
2022-10-23T22:45:48.288Z,4.53
2022-10-23T22:54:16.293Z,3.90
2022-10-23T22:58:19.348Z,3.57
2022-10-23T23:40:48.398Z,2.67
